sensor_id;sensor_type;location;lat;lon;timestamp;pressure;altitude;pressure_sealevel;temperature
19666;BMP180;9980;51.020;7.772;2024-01-11T00:01:46;98755.00;;;-2.50
19666;BMP180;9980;51.020;7.772;2024-01-11T00:04:13;98752.00;;;-2.50
19666;BMP180;9980;51.020;7.772;2024-01-11T00:06:44;98752.00;;;-2.50
19666;BMP180;9980;51.020;7.772;2024-01-11T00:09:12;98761.00;;;-2.50
19666;BMP180;9980;51.020;7.772;2024-01-11T00:11:39;98757.00;;;-2.60
19666;BMP180;9980;51.020;7.772;2024-01-11T00:14:06;98764.00;;;-2.60
19666;BMP180;9980;51.020;7.772;2024-01-11T00:16:33;98765.00;;;-2.60
19666;BMP180;9980;51.020;7.772;2024-01-11T00:19:00;98760.00;;;-2.60
19666;BMP180;9980;51.020;7.772;2024-01-11T00:21:27;98752.00;;;-2.60
19666;BMP180;9980;51.020;7.772;2024-01-11T00:23:54;98742.00;;;-2.60
19666;BMP180;9980;51.020;7.772;2024-01-11T00:26:21;98753.00;;;-2.60
19666;BMP180;9980;51.020;7.772;2024-01-11T00:28:48;98750.00;;;-2.60
19666;BMP180;9980;51.020;7.772;2024-01-11T00:31:15;98736.00;;;-2.70
19666;BMP180;9980;51.020;7.772;2024-01-11T00:33:42;98742.00;;;-2.70
19666;BMP180;9980;51.020;7.772;2024-01-11T00:36:09;98749.00;;;-2.70
19666;BMP180;9980;51.020;7.772;2024-01-11T00:38:36;98757.00;;;-2.70
19666;BMP180;9980;51.020;7.772;2024-01-11T00:41:03;98743.00;;;-2.70
19666;BMP180;9980;51.020;7.772;2024-01-11T00:43:30;98752.00;;;-2.70
19666;BMP180;9980;51.020;7.772;2024-01-11T00:45:57;98752.00;;;-2.80
19666;BMP180;9980;51.020;7.772;2024-01-11T00:48:24;98747.00;;;-2.80
19666;BMP180;9980;51.020;7.772;2024-01-11T00:50:51;98743.00;;;-2.80
19666;BMP180;9980;51.020;7.772;2024-01-11T00:53:18;98747.00;;;-2.80
19666;BMP180;9980;51.020;7.772;2024-01-11T00:55:45;98747.00;;;-2.80
19666;BMP180;9980;51.020;7.772;2024-01-11T00:58:12;98733.00;;;-2.90
19666;BMP180;9980;51.020;7.772;2024-01-11T01:00:39;98735.00;;;-2.90
19666;BMP180;9980;51.020;7.772;2024-01-11T01:03:06;98737.00;;;-2.90
19666;BMP180;9980;51.020;7.772;2024-01-11T01:05:33;98733.00;;;-2.90
19666;BMP180;9980;51.020;7.772;2024-01-11T01:08:01;98739.00;;;-2.90
19666;BMP180;9980;51.020;7.772;2024-01-11T01:10:28;98731.00;;;-2.90
19666;BMP180;9980;51.020;7.772;2024-01-11T01:12:55;98738.00;;;-2.90
19666;BMP180;9980;51.020;7.772;2024-01-11T01:15:22;98752.00;;;-2.90
19666;BMP180;9980;51.020;7.772;2024-01-11T01:17:49;98749.00;;;-3.00
19666;BMP180;9980;51.020;7.772;2024-01-11T01:20:16;98749.00;;;-3.00
19666;BMP180;9980;51.020;7.772;2024-01-11T01:22:43;98746.00;;;-3.00
19666;BMP180;9980;51.020;7.772;2024-01-11T01:25:10;98732.00;;;-3.00
19666;BMP180;9980;51.020;7.772;2024-01-11T01:27:37;98765.00;;;-3.00
19666;BMP180;9980;51.020;7.772;2024-01-11T01:30:05;98746.00;;;-3.00
19666;BMP180;9980;51.020;7.772;2024-01-11T01:32:32;98752.00;;;-3.00
19666;BMP180;9980;51.020;7.772;2024-01-11T01:34:59;98744.00;;;-3.10
19666;BMP180;9980;51.020;7.772;2024-01-11T01:37:26;98741.00;;;-3.10
19666;BMP180;9980;51.020;7.772;2024-01-11T01:39:53;98747.00;;;-3.10
19666;BMP180;9980;51.020;7.772;2024-01-11T01:42:20;98764.00;;;-3.10
19666;BMP180;9980;51.020;7.772;2024-01-11T01:44:47;98730.00;;;-3.10
19666;BMP180;9980;51.020;7.772;2024-01-11T01:47:14;98775.00;;;-3.10
19666;BMP180;9980;51.020;7.772;2024-01-11T01:49:43;98759.00;;;-3.20
19666;BMP180;9980;51.020;7.772;2024-01-11T01:52:13;98776.00;;;-3.20
19666;BMP180;9980;51.020;7.772;2024-01-11T01:54:41;98751.00;;;-3.20
19666;BMP180;9980;51.020;7.772;2024-01-11T01:57:11;98755.00;;;-3.20
19666;BMP180;9980;51.020;7.772;2024-01-11T01:59:39;98767.00;;;-3.20
19666;BMP180;9980;51.020;7.772;2024-01-11T02:02:07;98767.00;;;-3.20
19666;BMP180;9980;51.020;7.772;2024-01-11T02:04:35;98752.00;;;-3.30
19666;BMP180;9980;51.020;7.772;2024-01-11T02:07:03;98760.00;;;-3.30
19666;BMP180;9980;51.020;7.772;2024-01-11T02:09:31;98767.00;;;-3.30
19666;BMP180;9980;51.020;7.772;2024-01-11T02:11:58;98772.00;;;-3.30
19666;BMP180;9980;51.020;7.772;2024-01-11T02:14:26;98743.00;;;-3.30
19666;BMP180;9980;51.020;7.772;2024-01-11T02:16:53;98754.00;;;-3.30
19666;BMP180;9980;51.020;7.772;2024-01-11T02:19:21;98756.00;;;-3.30
19666;BMP180;9980;51.020;7.772;2024-01-11T02:21:52;98731.00;;;-3.40
19666;BMP180;9980;51.020;7.772;2024-01-11T02:24:20;98731.00;;;-3.40
19666;BMP180;9980;51.020;7.772;2024-01-11T02:27:02;98727.00;;;-3.40
19666;BMP180;9980;51.020;7.772;2024-01-11T02:29:30;98762.00;;;-3.40
19666;BMP180;9980;51.020;7.772;2024-01-11T02:32:00;98718.00;;;-3.40
19666;BMP180;9980;51.020;7.772;2024-01-11T02:34:29;98723.00;;;-3.40
19666;BMP180;9980;51.020;7.772;2024-01-11T02:36:56;98733.00;;;-3.40
19666;BMP180;9980;51.020;7.772;2024-01-11T02:39:25;98726.00;;;-3.40
19666;BMP180;9980;51.020;7.772;2024-01-11T02:41:56;98736.00;;;-3.40
19666;BMP180;9980;51.020;7.772;2024-01-11T02:44:24;98723.00;;;-3.40
19666;BMP180;9980;51.020;7.772;2024-01-11T02:46:51;98740.00;;;-3.50
19666;BMP180;9980;51.020;7.772;2024-01-11T02:49:18;98729.00;;;-3.50
19666;BMP180;9980;51.020;7.772;2024-01-11T02:51:46;98743.00;;;-3.50
19666;BMP180;9980;51.020;7.772;2024-01-11T02:54:13;98738.00;;;-3.50
19666;BMP180;9980;51.020;7.772;2024-01-11T02:56:39;98732.00;;;-3.50
19666;BMP180;9980;51.020;7.772;2024-01-11T02:59:06;98720.00;;;-3.60
19666;BMP180;9980;51.020;7.772;2024-01-11T03:01:33;98715.00;;;-3.60
19666;BMP180;9980;51.020;7.772;2024-01-11T03:04:00;98713.00;;;-3.60
19666;BMP180;9980;51.020;7.772;2024-01-11T03:06:28;98713.00;;;-3.60
19666;BMP180;9980;51.020;7.772;2024-01-11T03:08:55;98710.00;;;-3.60
19666;BMP180;9980;51.020;7.772;2024-01-11T03:11:22;98703.00;;;-3.60
19666;BMP180;9980;51.020;7.772;2024-01-11T03:13:49;98730.00;;;-3.60
19666;BMP180;9980;51.020;7.772;2024-01-11T03:16:16;98711.00;;;-3.70
19666;BMP180;9980;51.020;7.772;2024-01-11T03:18:43;98721.00;;;-3.70
19666;BMP180;9980;51.020;7.772;2024-01-11T03:21:10;98709.00;;;-3.70
19666;BMP180;9980;51.020;7.772;2024-01-11T03:23:37;98701.00;;;-3.70
19666;BMP180;9980;51.020;7.772;2024-01-11T03:26:12;98704.00;;;-3.70
19666;BMP180;9980;51.020;7.772;2024-01-11T03:28:40;98714.00;;;-3.70
19666;BMP180;9980;51.020;7.772;2024-01-11T03:31:08;98721.00;;;-3.80
19666;BMP180;9980;51.020;7.772;2024-01-11T03:33:36;98708.00;;;-3.80
19666;BMP180;9980;51.020;7.772;2024-01-11T03:36:10;98718.00;;;-3.80
19666;BMP180;9980;51.020;7.772;2024-01-11T03:38:38;98733.00;;;-3.80
19666;BMP180;9980;51.020;7.772;2024-01-11T03:41:09;98743.00;;;-3.80
19666;BMP180;9980;51.020;7.772;2024-01-11T03:43:37;98732.00;;;-3.90
19666;BMP180;9980;51.020;7.772;2024-01-11T03:46:04;98725.00;;;-3.90
19666;BMP180;9980;51.020;7.772;2024-01-11T03:48:31;98723.00;;;-3.90
19666;BMP180;9980;51.020;7.772;2024-01-11T03:50:58;98737.00;;;-3.90
19666;BMP180;9980;51.020;7.772;2024-01-11T03:53:25;98737.00;;;-3.90
19666;BMP180;9980;51.020;7.772;2024-01-11T03:55:52;98768.00;;;-3.90
19666;BMP180;9980;51.020;7.772;2024-01-11T03:58:19;98739.00;;;-4.00
19666;BMP180;9980;51.020;7.772;2024-01-11T04:00:46;98740.00;;;-4.00
19666;BMP180;9980;51.020;7.772;2024-01-11T04:03:13;98749.00;;;-4.00
19666;BMP180;9980;51.020;7.772;2024-01-11T04:05:40;98756.00;;;-4.00
19666;BMP180;9980;51.020;7.772;2024-01-11T04:08:08;98740.00;;;-4.00
19666;BMP180;9980;51.020;7.772;2024-01-11T04:10:35;98758.00;;;-4.00
19666;BMP180;9980;51.020;7.772;2024-01-11T04:13:02;98754.00;;;-4.00
19666;BMP180;9980;51.020;7.772;2024-01-11T04:15:28;98752.00;;;-4.10
19666;BMP180;9980;51.020;7.772;2024-01-11T04:17:55;98751.00;;;-4.10
19666;BMP180;9980;51.020;7.772;2024-01-11T04:20:23;98746.00;;;-4.10
19666;BMP180;9980;51.020;7.772;2024-01-11T04:22:51;98737.00;;;-4.10
19666;BMP180;9980;51.020;7.772;2024-01-11T04:25:18;98751.00;;;-4.10
19666;BMP180;9980;51.020;7.772;2024-01-11T04:27:45;98767.00;;;-4.10
19666;BMP180;9980;51.020;7.772;2024-01-11T04:30:12;98762.00;;;-4.10
19666;BMP180;9980;51.020;7.772;2024-01-11T04:32:39;98769.00;;;-4.10
19666;BMP180;9980;51.020;7.772;2024-01-11T04:35:06;98750.00;;;-4.20
19666;BMP180;9980;51.020;7.772;2024-01-11T04:37:33;98766.00;;;-4.20
19666;BMP180;9980;51.020;7.772;2024-01-11T04:40:02;98759.00;;;-4.20
19666;BMP180;9980;51.020;7.772;2024-01-11T04:42:30;98760.00;;;-4.20
19666;BMP180;9980;51.020;7.772;2024-01-11T04:44:57;98752.00;;;-4.20
19666;BMP180;9980;51.020;7.772;2024-01-11T04:47:23;98764.00;;;-4.20
19666;BMP180;9980;51.020;7.772;2024-01-11T04:49:51;98768.00;;;-4.20
19666;BMP180;9980;51.020;7.772;2024-01-11T04:52:17;98761.00;;;-4.30
19666;BMP180;9980;51.020;7.772;2024-01-11T04:54:44;98781.00;;;-4.20
19666;BMP180;9980;51.020;7.772;2024-01-11T04:57:11;98779.00;;;-4.30
19666;BMP180;9980;51.020;7.772;2024-01-11T04:59:38;98769.00;;;-4.30
19666;BMP180;9980;51.020;7.772;2024-01-11T05:02:05;98767.00;;;-4.30
19666;BMP180;9980;51.020;7.772;2024-01-11T05:04:32;98782.00;;;-4.30
19666;BMP180;9980;51.020;7.772;2024-01-11T05:06:59;98794.00;;;-4.30
19666;BMP180;9980;51.020;7.772;2024-01-11T05:09:26;98793.00;;;-4.40
19666;BMP180;9980;51.020;7.772;2024-01-11T05:11:53;98772.00;;;-4.40
19666;BMP180;9980;51.020;7.772;2024-01-11T05:14:20;98785.00;;;-4.40
19666;BMP180;9980;51.020;7.772;2024-01-11T05:16:47;98778.00;;;-4.40
19666;BMP180;9980;51.020;7.772;2024-01-11T05:19:14;98772.00;;;-4.40
19666;BMP180;9980;51.020;7.772;2024-01-11T05:21:41;98765.00;;;-4.40
19666;BMP180;9980;51.020;7.772;2024-01-11T05:24:08;98764.00;;;-4.40
19666;BMP180;9980;51.020;7.772;2024-01-11T05:26:37;98778.00;;;-4.50
19666;BMP180;9980;51.020;7.772;2024-01-11T05:29:04;98791.00;;;-4.50
19666;BMP180;9980;51.020;7.772;2024-01-11T05:31:32;98793.00;;;-4.50
19666;BMP180;9980;51.020;7.772;2024-01-11T05:33:59;98773.00;;;-4.50
19666;BMP180;9980;51.020;7.772;2024-01-11T05:36:26;98778.00;;;-4.60
19666;BMP180;9980;51.020;7.772;2024-01-11T05:38:53;98770.00;;;-4.60
19666;BMP180;9980;51.020;7.772;2024-01-11T05:41:20;98760.00;;;-4.60
19666;BMP180;9980;51.020;7.772;2024-01-11T05:43:47;98794.00;;;-4.60
19666;BMP180;9980;51.020;7.772;2024-01-11T05:46:14;98791.00;;;-4.60
19666;BMP180;9980;51.020;7.772;2024-01-11T05:48:42;98811.00;;;-4.60
19666;BMP180;9980;51.020;7.772;2024-01-11T05:51:09;98791.00;;;-4.60
19666;BMP180;9980;51.020;7.772;2024-01-11T05:53:36;98806.00;;;-4.60
19666;BMP180;9980;51.020;7.772;2024-01-11T05:56:10;98814.00;;;-4.60
19666;BMP180;9980;51.020;7.772;2024-01-11T05:58:39;98827.00;;;-4.70
19666;BMP180;9980;51.020;7.772;2024-01-11T06:01:06;98823.00;;;-4.70
19666;BMP180;9980;51.020;7.772;2024-01-11T06:03:33;98822.00;;;-4.70
19666;BMP180;9980;51.020;7.772;2024-01-11T06:06:02;98822.00;;;-4.70
19666;BMP180;9980;51.020;7.772;2024-01-11T06:08:30;98819.00;;;-4.70
19666;BMP180;9980;51.020;7.772;2024-01-11T06:10:58;98820.00;;;-4.70
19666;BMP180;9980;51.020;7.772;2024-01-11T06:13:25;98814.00;;;-4.70
19666;BMP180;9980;51.020;7.772;2024-01-11T06:15:53;98819.00;;;-4.70
19666;BMP180;9980;51.020;7.772;2024-01-11T06:18:20;98827.00;;;-4.80
19666;BMP180;9980;51.020;7.772;2024-01-11T06:20:47;98810.00;;;-4.80
19666;BMP180;9980;51.020;7.772;2024-01-11T06:23:14;98834.00;;;-4.80
19666;BMP180;9980;51.020;7.772;2024-01-11T06:25:43;98814.00;;;-4.80
19666;BMP180;9980;51.020;7.772;2024-01-11T06:28:10;98838.00;;;-4.80
19666;BMP180;9980;51.020;7.772;2024-01-11T06:30:37;98822.00;;;-4.80
19666;BMP180;9980;51.020;7.772;2024-01-11T06:33:04;98828.00;;;-4.80
19666;BMP180;9980;51.020;7.772;2024-01-11T06:35:31;98808.00;;;-4.80
19666;BMP180;9980;51.020;7.772;2024-01-11T06:37:58;98824.00;;;-4.90
19666;BMP180;9980;51.020;7.772;2024-01-11T06:40:25;98830.00;;;-4.80
19666;BMP180;9980;51.020;7.772;2024-01-11T06:42:52;98814.00;;;-4.80
19666;BMP180;9980;51.020;7.772;2024-01-11T06:45:19;98828.00;;;-4.80
19666;BMP180;9980;51.020;7.772;2024-01-11T06:47:46;98809.00;;;-4.90
19666;BMP180;9980;51.020;7.772;2024-01-11T06:50:14;98831.00;;;-4.90
19666;BMP180;9980;51.020;7.772;2024-01-11T06:52:41;98824.00;;;-4.90
19666;BMP180;9980;51.020;7.772;2024-01-11T06:55:08;98825.00;;;-4.90
19666;BMP180;9980;51.020;7.772;2024-01-11T06:57:35;98810.00;;;-4.90
19666;BMP180;9980;51.020;7.772;2024-01-11T07:00:03;98812.00;;;-4.90
19666;BMP180;9980;51.020;7.772;2024-01-11T07:02:30;98818.00;;;-4.90
19666;BMP180;9980;51.020;7.772;2024-01-11T07:04:57;98821.00;;;-4.90
19666;BMP180;9980;51.020;7.772;2024-01-11T07:07:24;98814.00;;;-4.90
19666;BMP180;9980;51.020;7.772;2024-01-11T07:09:53;98828.00;;;-4.90
19666;BMP180;9980;51.020;7.772;2024-01-11T07:12:22;98812.00;;;-5.00
19666;BMP180;9980;51.020;7.772;2024-01-11T07:14:49;98831.00;;;-5.00
19666;BMP180;9980;51.020;7.772;2024-01-11T07:17:16;98837.00;;;-5.00
19666;BMP180;9980;51.020;7.772;2024-01-11T07:19:43;98855.00;;;-5.00
19666;BMP180;9980;51.020;7.772;2024-01-11T07:22:10;98852.00;;;-5.00
19666;BMP180;9980;51.020;7.772;2024-01-11T07:24:37;98853.00;;;-5.00
19666;BMP180;9980;51.020;7.772;2024-01-11T07:27:06;98855.00;;;-5.10
19666;BMP180;9980;51.020;7.772;2024-01-11T07:29:33;98864.00;;;-5.10
19666;BMP180;9980;51.020;7.772;2024-01-11T07:32:00;98862.00;;;-5.10
19666;BMP180;9980;51.020;7.772;2024-01-11T07:34:28;98859.00;;;-5.10
19666;BMP180;9980;51.020;7.772;2024-01-11T07:36:55;98871.00;;;-5.10
19666;BMP180;9980;51.020;7.772;2024-01-11T07:39:23;98868.00;;;-5.10
19666;BMP180;9980;51.020;7.772;2024-01-11T07:41:51;98887.00;;;-5.10
19666;BMP180;9980;51.020;7.772;2024-01-11T07:44:18;98892.00;;;-5.10
19666;BMP180;9980;51.020;7.772;2024-01-11T07:46:45;98886.00;;;-5.10
19666;BMP180;9980;51.020;7.772;2024-01-11T07:49:20;98878.00;;;-5.10
19666;BMP180;9980;51.020;7.772;2024-01-11T07:51:47;98885.00;;;-5.10
19666;BMP180;9980;51.020;7.772;2024-01-11T07:54:15;98864.00;;;-5.10
19666;BMP180;9980;51.020;7.772;2024-01-11T07:56:42;98867.00;;;-5.10
19666;BMP180;9980;51.020;7.772;2024-01-11T07:59:09;98865.00;;;-5.10
19666;BMP180;9980;51.020;7.772;2024-01-11T08:01:41;98861.00;;;-5.10
19666;BMP180;9980;51.020;7.772;2024-01-11T08:04:08;98886.00;;;-5.00
19666;BMP180;9980;51.020;7.772;2024-01-11T08:06:35;98868.00;;;-5.00
19666;BMP180;9980;51.020;7.772;2024-01-11T08:09:02;98863.00;;;-5.00
19666;BMP180;9980;51.020;7.772;2024-01-11T08:11:31;98862.00;;;-5.00
19666;BMP180;9980;51.020;7.772;2024-01-11T08:14:03;98881.00;;;-5.00
19666;BMP180;9980;51.020;7.772;2024-01-11T08:16:32;98879.00;;;-5.00
19666;BMP180;9980;51.020;7.772;2024-01-11T08:18:59;98881.00;;;-5.00
19666;BMP180;9980;51.020;7.772;2024-01-11T08:21:28;98870.00;;;-4.90
19666;BMP180;9980;51.020;7.772;2024-01-11T08:23:55;98861.00;;;-4.90
19666;BMP180;9980;51.020;7.772;2024-01-11T08:26:28;98836.00;;;-4.90
19666;BMP180;9980;51.020;7.772;2024-01-11T08:28:57;98870.00;;;-4.90
19666;BMP180;9980;51.020;7.772;2024-01-11T08:31:24;98838.00;;;-4.80
19666;BMP180;9980;51.020;7.772;2024-01-11T08:33:51;98882.00;;;-4.80
19666;BMP180;9980;51.020;7.772;2024-01-11T08:36:18;98890.00;;;-4.70
19666;BMP180;9980;51.020;7.772;2024-01-11T08:38:45;98850.00;;;-4.70
19666;BMP180;9980;51.020;7.772;2024-01-11T08:41:13;98853.00;;;-4.60
19666;BMP180;9980;51.020;7.772;2024-01-11T08:43:39;98849.00;;;-4.60
19666;BMP180;9980;51.020;7.772;2024-01-11T08:46:06;98866.00;;;-4.50
19666;BMP180;9980;51.020;7.772;2024-01-11T08:48:33;98880.00;;;-4.50
19666;BMP180;9980;51.020;7.772;2024-01-11T08:51:00;98880.00;;;-4.40
19666;BMP180;9980;51.020;7.772;2024-01-11T08:53:28;98870.00;;;-4.40
19666;BMP180;9980;51.020;7.772;2024-01-11T08:55:55;98877.00;;;-4.40
19666;BMP180;9980;51.020;7.772;2024-01-11T08:58:22;98871.00;;;-4.30
19666;BMP180;9980;51.020;7.772;2024-01-11T09:00:48;98893.00;;;-4.30
19666;BMP180;9980;51.020;7.772;2024-01-11T09:03:15;98879.00;;;-4.20
19666;BMP180;9980;51.020;7.772;2024-01-11T09:05:44;98899.00;;;-4.20
19666;BMP180;9980;51.020;7.772;2024-01-11T09:08:11;98878.00;;;-4.10
19666;BMP180;9980;51.020;7.772;2024-01-11T09:10:38;98888.00;;;-4.10
19666;BMP180;9980;51.020;7.772;2024-01-11T09:13:05;98889.00;;;-4.00
19666;BMP180;9980;51.020;7.772;2024-01-11T09:15:32;98877.00;;;-4.00
19666;BMP180;9980;51.020;7.772;2024-01-11T09:17:59;98895.00;;;-3.90
19666;BMP180;9980;51.020;7.772;2024-01-11T09:20:30;98894.00;;;-3.80
19666;BMP180;9980;51.020;7.772;2024-01-11T09:22:57;98875.00;;;-3.80
19666;BMP180;9980;51.020;7.772;2024-01-11T09:25:24;98899.00;;;-3.70
19666;BMP180;9980;51.020;7.772;2024-01-11T09:27:51;98891.00;;;-3.60
19666;BMP180;9980;51.020;7.772;2024-01-11T09:30:18;98898.00;;;-3.50
19666;BMP180;9980;51.020;7.772;2024-01-11T09:32:45;98893.00;;;-3.40
19666;BMP180;9980;51.020;7.772;2024-01-11T09:35:13;98892.00;;;-3.30
19666;BMP180;9980;51.020;7.772;2024-01-11T09:37:42;98898.00;;;-3.20
19666;BMP180;9980;51.020;7.772;2024-01-11T09:40:12;98901.00;;;-3.10
19666;BMP180;9980;51.020;7.772;2024-01-11T09:42:40;98895.00;;;-3.00
19666;BMP180;9980;51.020;7.772;2024-01-11T09:45:14;98883.00;;;-2.90
19666;BMP180;9980;51.020;7.772;2024-01-11T09:47:45;98910.00;;;-2.80
19666;BMP180;9980;51.020;7.772;2024-01-11T09:50:15;98906.00;;;-2.70
19666;BMP180;9980;51.020;7.772;2024-01-11T09:52:47;98889.00;;;-2.60
19666;BMP180;9980;51.020;7.772;2024-01-11T09:55:18;98897.00;;;-2.60
19666;BMP180;9980;51.020;7.772;2024-01-11T09:57:47;98891.00;;;-2.50
19666;BMP180;9980;51.020;7.772;2024-01-11T10:00:19;98889.00;;;-2.30
19666;BMP180;9980;51.020;7.772;2024-01-11T10:02:48;98898.00;;;-2.20
19666;BMP180;9980;51.020;7.772;2024-01-11T10:05:18;98899.00;;;-2.10
19666;BMP180;9980;51.020;7.772;2024-01-11T10:07:46;98881.00;;;-2.00
19666;BMP180;9980;51.020;7.772;2024-01-11T10:10:13;98869.00;;;-1.90
19666;BMP180;9980;51.020;7.772;2024-01-11T10:12:42;98880.00;;;-1.80
19666;BMP180;9980;51.020;7.772;2024-01-11T10:15:10;98870.00;;;-1.60
19666;BMP180;9980;51.020;7.772;2024-01-11T10:17:45;98888.00;;;-1.50
19666;BMP180;9980;51.020;7.772;2024-01-11T10:20:13;98887.00;;;-1.40
19666;BMP180;9980;51.020;7.772;2024-01-11T10:22:45;98880.00;;;-1.20
19666;BMP180;9980;51.020;7.772;2024-01-11T10:25:15;98879.00;;;-1.10
19666;BMP180;9980;51.020;7.772;2024-01-11T10:27:44;98884.00;;;-1.00
19666;BMP180;9980;51.020;7.772;2024-01-11T10:30:14;98878.00;;;-0.80
19666;BMP180;9980;51.020;7.772;2024-01-11T10:32:47;98881.00;;;-0.70
19666;BMP180;9980;51.020;7.772;2024-01-11T10:35:15;98870.00;;;-0.60
19666;BMP180;9980;51.020;7.772;2024-01-11T10:37:45;98866.00;;;-0.40
19666;BMP180;9980;51.020;7.772;2024-01-11T10:40:13;98870.00;;;-0.30
19666;BMP180;9980;51.020;7.772;2024-01-11T10:42:44;98868.00;;;-0.20
19666;BMP180;9980;51.020;7.772;2024-01-11T10:45:17;98884.00;;;0.00
19666;BMP180;9980;51.020;7.772;2024-01-11T10:47:56;98888.00;;;0.20
19666;BMP180;9980;51.020;7.772;2024-01-11T10:50:37;98865.00;;;0.30
19666;BMP180;9980;51.020;7.772;2024-01-11T10:56:11;98869.00;;;0.60
19666;BMP180;9980;51.020;7.772;2024-01-11T10:58:44;98868.00;;;0.80
19666;BMP180;9980;51.020;7.772;2024-01-11T11:01:13;98874.00;;;0.90
19666;BMP180;9980;51.020;7.772;2024-01-11T11:03:43;98888.00;;;1.10
19666;BMP180;9980;51.020;7.772;2024-01-11T11:06:11;98879.00;;;1.20
19666;BMP180;9980;51.020;7.772;2024-01-11T11:08:41;98889.00;;;1.30
19666;BMP180;9980;51.020;7.772;2024-01-11T11:11:09;98863.00;;;1.50
19666;BMP180;9980;51.020;7.772;2024-01-11T11:13:36;98880.00;;;1.60
19666;BMP180;9980;51.020;7.772;2024-01-11T11:16:04;98880.00;;;1.70
19666;BMP180;9980;51.020;7.772;2024-01-11T11:18:32;98864.00;;;1.80
19666;BMP180;9980;51.020;7.772;2024-01-11T11:21:09;98870.00;;;2.00
19666;BMP180;9980;51.020;7.772;2024-01-11T11:23:38;98857.00;;;2.10
19666;BMP180;9980;51.020;7.772;2024-01-11T11:26:06;98859.00;;;2.30
19666;BMP180;9980;51.020;7.772;2024-01-11T11:28:35;98856.00;;;2.40
19666;BMP180;9980;51.020;7.772;2024-01-11T11:31:03;98858.00;;;2.50
19666;BMP180;9980;51.020;7.772;2024-01-11T11:33:30;98849.00;;;2.70
19666;BMP180;9980;51.020;7.772;2024-01-11T11:35:59;98847.00;;;2.80
19666;BMP180;9980;51.020;7.772;2024-01-11T11:38:28;98869.00;;;2.90
19666;BMP180;9980;51.020;7.772;2024-01-11T11:41:00;98845.00;;;3.00
19666;BMP180;9980;51.020;7.772;2024-01-11T11:43:28;98845.00;;;3.20
19666;BMP180;9980;51.020;7.772;2024-01-11T11:45:57;98849.00;;;3.30
19666;BMP180;9980;51.020;7.772;2024-01-11T11:51:11;98865.00;;;3.50
19666;BMP180;9980;51.020;7.772;2024-01-11T11:53:42;98831.00;;;3.60
19666;BMP180;9980;51.020;7.772;2024-01-11T11:56:13;98849.00;;;3.70
19666;BMP180;9980;51.020;7.772;2024-01-11T11:58:46;98875.00;;;3.90
19666;BMP180;9980;51.020;7.772;2024-01-11T12:01:15;98844.00;;;4.00
19666;BMP180;9980;51.020;7.772;2024-01-11T12:03:45;98830.00;;;4.10
19666;BMP180;9980;51.020;7.772;2024-01-11T12:06:21;98811.00;;;4.20
19666;BMP180;9980;51.020;7.772;2024-01-11T12:08:53;98826.00;;;4.30
19666;BMP180;9980;51.020;7.772;2024-01-11T12:11:25;98830.00;;;4.50
19666;BMP180;9980;51.020;7.772;2024-01-11T12:13:52;98813.00;;;4.50
19666;BMP180;9980;51.020;7.772;2024-01-11T12:16:21;98803.00;;;4.70
19666;BMP180;9980;51.020;7.772;2024-01-11T12:18:49;98814.00;;;4.80
19666;BMP180;9980;51.020;7.772;2024-01-11T12:21:17;98811.00;;;4.90
19666;BMP180;9980;51.020;7.772;2024-01-11T12:23:44;98806.00;;;5.00
19666;BMP180;9980;51.020;7.772;2024-01-11T12:26:12;98815.00;;;5.10
19666;BMP180;9980;51.020;7.772;2024-01-11T12:28:42;98815.00;;;5.20
19666;BMP180;9980;51.020;7.772;2024-01-11T12:31:12;98806.00;;;5.30
19666;BMP180;9980;51.020;7.772;2024-01-11T12:33:39;98799.00;;;5.40
19666;BMP180;9980;51.020;7.772;2024-01-11T12:36:08;98809.00;;;5.40
19666;BMP180;9980;51.020;7.772;2024-01-11T12:38:36;98799.00;;;5.50
19666;BMP180;9980;51.020;7.772;2024-01-11T12:41:05;98814.00;;;5.60
19666;BMP180;9980;51.020;7.772;2024-01-11T12:43:33;98818.00;;;5.70
19666;BMP180;9980;51.020;7.772;2024-01-11T12:46:02;98819.00;;;5.80
19666;BMP180;9980;51.020;7.772;2024-01-11T12:48:29;98815.00;;;5.80
19666;BMP180;9980;51.020;7.772;2024-01-11T12:50:57;98825.00;;;5.90
19666;BMP180;9980;51.020;7.772;2024-01-11T12:53:40;98825.00;;;5.90
19666;BMP180;9980;51.020;7.772;2024-01-11T12:56:08;98822.00;;;6.00
19666;BMP180;9980;51.020;7.772;2024-01-11T12:58:38;98828.00;;;6.10
19666;BMP180;9980;51.020;7.772;2024-01-11T13:01:06;98829.00;;;6.10
19666;BMP180;9980;51.020;7.772;2024-01-11T13:03:38;98826.00;;;6.20
19666;BMP180;9980;51.020;7.772;2024-01-11T13:06:05;98821.00;;;6.20
19666;BMP180;9980;51.020;7.772;2024-01-11T13:08:33;98828.00;;;6.30
19666;BMP180;9980;51.020;7.772;2024-01-11T13:11:04;98819.00;;;6.40
19666;BMP180;9980;51.020;7.772;2024-01-11T13:13:34;98818.00;;;6.40
19666;BMP180;9980;51.020;7.772;2024-01-11T13:16:03;98825.00;;;6.50
19666;BMP180;9980;51.020;7.772;2024-01-11T13:18:33;98817.00;;;6.60
19666;BMP180;9980;51.020;7.772;2024-01-11T13:21:00;98817.00;;;6.70
19666;BMP180;9980;51.020;7.772;2024-01-11T13:23:27;98806.00;;;6.70
19666;BMP180;9980;51.020;7.772;2024-01-11T13:25:54;98804.00;;;6.70
19666;BMP180;9980;51.020;7.772;2024-01-11T13:28:21;98807.00;;;6.80
19666;BMP180;9980;51.020;7.772;2024-01-11T13:30:48;98807.00;;;6.80
19666;BMP180;9980;51.020;7.772;2024-01-11T13:33:16;98816.00;;;6.90
19666;BMP180;9980;51.020;7.772;2024-01-11T13:35:45;98803.00;;;6.90
19666;BMP180;9980;51.020;7.772;2024-01-11T13:38:13;98800.00;;;7.00
19666;BMP180;9980;51.020;7.772;2024-01-11T13:40:40;98802.00;;;7.00
19666;BMP180;9980;51.020;7.772;2024-01-11T13:43:08;98826.00;;;7.00
19666;BMP180;9980;51.020;7.772;2024-01-11T13:45:36;98808.00;;;7.00
19666;BMP180;9980;51.020;7.772;2024-01-11T13:48:05;98793.00;;;7.00
19666;BMP180;9980;51.020;7.772;2024-01-11T13:50:33;98799.00;;;7.00
19666;BMP180;9980;51.020;7.772;2024-01-11T13:53:01;98801.00;;;7.10
19666;BMP180;9980;51.020;7.772;2024-01-11T13:55:29;98799.00;;;7.10
19666;BMP180;9980;51.020;7.772;2024-01-11T13:58:04;98817.00;;;7.10
19666;BMP180;9980;51.020;7.772;2024-01-11T14:00:31;98814.00;;;7.20
19666;BMP180;9980;51.020;7.772;2024-01-11T14:02:59;98809.00;;;7.20
19666;BMP180;9980;51.020;7.772;2024-01-11T14:05:26;98785.00;;;7.20
19666;BMP180;9980;51.020;7.772;2024-01-11T14:07:53;98792.00;;;7.30
19666;BMP180;9980;51.020;7.772;2024-01-11T14:10:25;98781.00;;;7.30
19666;BMP180;9980;51.020;7.772;2024-01-11T14:12:54;98803.00;;;7.30
19666;BMP180;9980;51.020;7.772;2024-01-11T14:15:21;98798.00;;;7.40
19666;BMP180;9980;51.020;7.772;2024-01-11T14:17:48;98817.00;;;7.40
19666;BMP180;9980;51.020;7.772;2024-01-11T14:20:16;98801.00;;;7.40
19666;BMP180;9980;51.020;7.772;2024-01-11T14:22:45;98794.00;;;7.40
19666;BMP180;9980;51.020;7.772;2024-01-11T14:25:19;98791.00;;;7.40
19666;BMP180;9980;51.020;7.772;2024-01-11T14:27:50;98813.00;;;7.30
19666;BMP180;9980;51.020;7.772;2024-01-11T14:30:17;98782.00;;;7.30
19666;BMP180;9980;51.020;7.772;2024-01-11T14:32:44;98801.00;;;7.20
19666;BMP180;9980;51.020;7.772;2024-01-11T14:35:12;98795.00;;;7.20